sensor_id;sensor_type;location;lat;lon;timestamp;P1;durP1;ratioP1;P2;durP2;ratioP2
18176;SDS011;9213;50.858;3.964;2023-07-24T00:01:26;13.23;;;5.93;;
18176;SDS011;9213;50.858;3.964;2023-07-24T00:03:53;14.68;;;6.72;;
18176;SDS011;9213;50.858;3.964;2023-07-24T00:06:21;15.60;;;7.20;;
18176;SDS011;9213;50.858;3.964;2023-07-24T00:08:49;11.75;;;6.43;;
18176;SDS011;9213;50.858;3.964;2023-07-24T00:11:16;12.25;;;6.63;;
18176;SDS011;9213;50.858;3.964;2023-07-24T00:13:44;13.50;;;5.85;;
18176;SDS011;9213;50.858;3.964;2023-07-24T00:16:11;13.52;;;6.38;;
18176;SDS011;9213;50.858;3.964;2023-07-24T00:18:38;14.05;;;6.35;;
18176;SDS011;9213;50.858;3.964;2023-07-24T00:21:06;10.68;;;6.20;;
18176;SDS011;9213;50.858;3.964;2023-07-24T00:23:33;19.35;;;6.22;;
18176;SDS011;9213;50.858;3.964;2023-07-24T00:26:01;17.40;;;6.78;;
18176;SDS011;9213;50.858;3.964;2023-07-24T00:28:28;17.13;;;6.65;;
18176;SDS011;9213;50.858;3.964;2023-07-24T00:30:55;11.65;;;5.85;;
18176;SDS011;9213;50.858;3.964;2023-07-24T00:33:22;17.88;;;6.85;;
18176;SDS011;9213;50.858;3.964;2023-07-24T00:35:49;13.73;;;5.88;;
18176;SDS011;9213;50.858;3.964;2023-07-24T00:38:16;13.40;;;6.07;;
18176;SDS011;9213;50.858;3.964;2023-07-24T00:40:43;10.23;;;5.30;;
18176;SDS011;9213;50.858;3.964;2023-07-24T00:43:11;10.73;;;5.40;;
18176;SDS011;9213;50.858;3.964;2023-07-24T00:45:38;13.57;;;4.95;;
18176;SDS011;9213;50.858;3.964;2023-07-24T00:48:05;13.00;;;5.57;;
18176;SDS011;9213;50.858;3.964;2023-07-24T00:50:32;12.15;;;5.57;;
18176;SDS011;9213;50.858;3.964;2023-07-24T00:52:59;11.33;;;6.00;;
18176;SDS011;9213;50.858;3.964;2023-07-24T00:55:27;12.93;;;5.28;;
18176;SDS011;9213;50.858;3.964;2023-07-24T00:57:54;15.18;;;6.03;;
18176;SDS011;9213;50.858;3.964;2023-07-24T01:00:25;10.82;;;4.35;;
18176;SDS011;9213;50.858;3.964;2023-07-24T01:02:52;5.93;;;3.50;;
18176;SDS011;9213;50.858;3.964;2023-07-24T01:05:20;4.95;;;3.17;;
18176;SDS011;9213;50.858;3.964;2023-07-24T01:07:50;5.53;;;3.40;;
18176;SDS011;9213;50.858;3.964;2023-07-24T01:10:18;5.97;;;2.80;;
18176;SDS011;9213;50.858;3.964;2023-07-24T01:12:45;5.90;;;3.40;;
18176;SDS011;9213;50.858;3.964;2023-07-24T01:15:25;5.25;;;3.40;;
18176;SDS011;9213;50.858;3.964;2023-07-24T01:17:59;4.67;;;2.73;;
18176;SDS011;9213;50.858;3.964;2023-07-24T01:20:28;3.93;;;2.63;;
18176;SDS011;9213;50.858;3.964;2023-07-24T01:23:06;5.80;;;2.63;;
18176;SDS011;9213;50.858;3.964;2023-07-24T01:25:55;6.23;;;3.40;;
18176;SDS011;9213;50.858;3.964;2023-07-24T01:28:23;3.83;;;2.53;;
18176;SDS011;9213;50.858;3.964;2023-07-24T01:30:50;6.35;;;3.17;;
18176;SDS011;9213;50.858;3.964;2023-07-24T01:33:17;6.60;;;2.90;;
18176;SDS011;9213;50.858;3.964;2023-07-24T01:35:45;7.35;;;3.20;;
18176;SDS011;9213;50.858;3.964;2023-07-24T01:38:15;3.90;;;3.05;;
18176;SDS011;9213;50.858;3.964;2023-07-24T01:40:42;5.20;;;2.87;;
18176;SDS011;9213;50.858;3.964;2023-07-24T01:43:11;4.53;;;3.30;;
18176;SDS011;9213;50.858;3.964;2023-07-24T01:45:38;3.10;;;2.80;;
18176;SDS011;9213;50.858;3.964;2023-07-24T01:48:05;3.53;;;2.77;;
18176;SDS011;9213;50.858;3.964;2023-07-24T01:50:32;3.73;;;2.50;;
18176;SDS011;9213;50.858;3.964;2023-07-24T01:52:59;5.53;;;3.10;;
18176;SDS011;9213;50.858;3.964;2023-07-24T01:55:26;9.55;;;3.45;;
18176;SDS011;9213;50.858;3.964;2023-07-24T01:57:53;5.05;;;3.60;;
18176;SDS011;9213;50.858;3.964;2023-07-24T02:00:21;6.35;;;3.75;;
18176;SDS011;9213;50.858;3.964;2023-07-24T02:02:48;5.20;;;3.70;;
18176;SDS011;9213;50.858;3.964;2023-07-24T02:05:15;4.57;;;3.43;;
18176;SDS011;9213;50.858;3.964;2023-07-24T02:07:42;4.23;;;3.40;;
18176;SDS011;9213;50.858;3.964;2023-07-24T02:10:09;7.73;;;4.10;;
18176;SDS011;9213;50.858;3.964;2023-07-24T02:12:36;5.47;;;3.60;;
18176;SDS011;9213;50.858;3.964;2023-07-24T02:15:03;6.67;;;3.67;;
18176;SDS011;9213;50.858;3.964;2023-07-24T02:17:31;5.77;;;3.70;;
18176;SDS011;9213;50.858;3.964;2023-07-24T02:19:58;6.07;;;3.78;;
18176;SDS011;9213;50.858;3.964;2023-07-24T02:22:25;6.78;;;3.90;;
18176;SDS011;9213;50.858;3.964;2023-07-24T02:24:52;5.60;;;3.55;;
18176;SDS011;9213;50.858;3.964;2023-07-24T02:27:26;11.52;;;4.03;;
18176;SDS011;9213;50.858;3.964;2023-07-24T02:29:53;7.43;;;3.90;;
18176;SDS011;9213;50.858;3.964;2023-07-24T02:32:20;5.57;;;3.70;;
18176;SDS011;9213;50.858;3.964;2023-07-24T02:34:49;5.80;;;3.60;;
18176;SDS011;9213;50.858;3.964;2023-07-24T02:37:17;7.13;;;3.90;;
18176;SDS011;9213;50.858;3.964;2023-07-24T02:39:44;5.97;;;4.10;;
18176;SDS011;9213;50.858;3.964;2023-07-24T02:42:11;7.13;;;4.07;;
18176;SDS011;9213;50.858;3.964;2023-07-24T02:44:38;9.95;;;4.47;;
18176;SDS011;9213;50.858;3.964;2023-07-24T02:47:05;9.30;;;4.30;;
18176;SDS011;9213;50.858;3.964;2023-07-24T02:49:32;7.87;;;3.97;;
18176;SDS011;9213;50.858;3.964;2023-07-24T02:52:00;6.63;;;4.00;;
18176;SDS011;9213;50.858;3.964;2023-07-24T02:54:27;4.90;;;3.40;;
18176;SDS011;9213;50.858;3.964;2023-07-24T02:56:54;4.60;;;3.50;;
18176;SDS011;9213;50.858;3.964;2023-07-24T02:59:21;5.93;;;3.60;;
18176;SDS011;9213;50.858;3.964;2023-07-24T03:01:48;5.30;;;3.60;;
18176;SDS011;9213;50.858;3.964;2023-07-24T03:04:15;5.10;;;4.10;;
18176;SDS011;9213;50.858;3.964;2023-07-24T03:06:42;5.13;;;3.30;;
18176;SDS011;9213;50.858;3.964;2023-07-24T03:09:10;5.03;;;3.33;;
18176;SDS011;9213;50.858;3.964;2023-07-24T03:11:37;6.13;;;3.27;;
18176;SDS011;9213;50.858;3.964;2023-07-24T03:14:04;4.10;;;3.53;;
18176;SDS011;9213;50.858;3.964;2023-07-24T03:16:31;5.47;;;3.50;;
18176;SDS011;9213;50.858;3.964;2023-07-24T03:18:58;3.70;;;3.13;;
18176;SDS011;9213;50.858;3.964;2023-07-24T03:21:25;3.97;;;3.03;;
18176;SDS011;9213;50.858;3.964;2023-07-24T03:23:52;3.63;;;2.70;;
18176;SDS011;9213;50.858;3.964;2023-07-24T03:26:20;4.40;;;2.90;;
18176;SDS011;9213;50.858;3.964;2023-07-24T03:28:47;3.33;;;2.73;;
18176;SDS011;9213;50.858;3.964;2023-07-24T03:31:14;2.57;;;2.30;;
18176;SDS011;9213;50.858;3.964;2023-07-24T03:33:40;3.27;;;2.50;;
18176;SDS011;9213;50.858;3.964;2023-07-24T03:36:07;3.97;;;2.53;;
18176;SDS011;9213;50.858;3.964;2023-07-24T03:38:34;2.90;;;2.50;;
18176;SDS011;9213;50.858;3.964;2023-07-24T03:41:01;3.60;;;2.37;;
18176;SDS011;9213;50.858;3.964;2023-07-24T03:43:29;2.78;;;2.50;;
18176;SDS011;9213;50.858;3.964;2023-07-24T03:45:56;3.60;;;2.40;;
18176;SDS011;9213;50.858;3.964;2023-07-24T03:48:23;3.20;;;2.60;;
18176;SDS011;9213;50.858;3.964;2023-07-24T03:50:50;4.80;;;2.90;;
18176;SDS011;9213;50.858;3.964;2023-07-24T03:53:23;4.27;;;3.03;;
18176;SDS011;9213;50.858;3.964;2023-07-24T03:55:50;2.97;;;2.70;;
18176;SDS011;9213;50.858;3.964;2023-07-24T03:58:17;4.07;;;2.80;;
18176;SDS011;9213;50.858;3.964;2023-07-24T04:00:45;5.90;;;2.97;;
18176;SDS011;9213;50.858;3.964;2023-07-24T04:03:12;3.20;;;2.60;;
18176;SDS011;9213;50.858;3.964;2023-07-24T04:05:39;4.67;;;2.97;;
18176;SDS011;9213;50.858;3.964;2023-07-24T04:08:06;3.27;;;2.97;;
18176;SDS011;9213;50.858;3.964;2023-07-24T04:10:33;3.17;;;2.63;;
18176;SDS011;9213;50.858;3.964;2023-07-24T04:13:00;3.70;;;2.83;;
18176;SDS011;9213;50.858;3.964;2023-07-24T04:15:27;3.27;;;2.80;;
18176;SDS011;9213;50.858;3.964;2023-07-24T04:17:55;4.10;;;2.83;;
18176;SDS011;9213;50.858;3.964;2023-07-24T04:20:22;3.70;;;2.80;;
18176;SDS011;9213;50.858;3.964;2023-07-24T04:22:49;3.80;;;3.10;;
18176;SDS011;9213;50.858;3.964;2023-07-24T04:25:16;3.67;;;2.90;;
18176;SDS011;9213;50.858;3.964;2023-07-24T04:27:43;5.73;;;3.60;;
18176;SDS011;9213;50.858;3.964;2023-07-24T04:30:10;4.87;;;3.23;;
18176;SDS011;9213;50.858;3.964;2023-07-24T04:32:37;3.60;;;3.10;;
18176;SDS011;9213;50.858;3.964;2023-07-24T04:35:06;4.87;;;3.60;;
18176;SDS011;9213;50.858;3.964;2023-07-24T04:37:33;5.97;;;3.90;;
18176;SDS011;9213;50.858;3.964;2023-07-24T04:40:00;5.23;;;3.60;;
18176;SDS011;9213;50.858;3.964;2023-07-24T04:42:27;4.47;;;3.60;;
18176;SDS011;9213;50.858;3.964;2023-07-24T04:44:54;8.20;;;3.70;;
18176;SDS011;9213;50.858;3.964;2023-07-24T04:47:21;4.20;;;3.20;;
18176;SDS011;9213;50.858;3.964;2023-07-24T04:49:48;4.80;;;3.30;;
18176;SDS011;9213;50.858;3.964;2023-07-24T04:52:16;4.97;;;3.40;;
18176;SDS011;9213;50.858;3.964;2023-07-24T04:54:43;4.83;;;3.50;;
18176;SDS011;9213;50.858;3.964;2023-07-24T04:57:10;4.83;;;3.40;;
18176;SDS011;9213;50.858;3.964;2023-07-24T04:59:37;4.43;;;3.50;;
18176;SDS011;9213;50.858;3.964;2023-07-24T05:02:04;6.83;;;3.47;;
18176;SDS011;9213;50.858;3.964;2023-07-24T05:04:31;6.57;;;3.20;;
18176;SDS011;9213;50.858;3.964;2023-07-24T05:06:58;4.17;;;3.40;;
18176;SDS011;9213;50.858;3.964;2023-07-24T05:09:26;6.63;;;3.30;;
18176;SDS011;9213;50.858;3.964;2023-07-24T05:11:53;3.63;;;3.30;;
18176;SDS011;9213;50.858;3.964;2023-07-24T05:14:20;4.57;;;3.63;;
18176;SDS011;9213;50.858;3.964;2023-07-24T05:16:47;5.97;;;3.80;;
18176;SDS011;9213;50.858;3.964;2023-07-24T05:19:13;3.90;;;3.50;;
18176;SDS011;9213;50.858;3.964;2023-07-24T05:21:40;5.07;;;3.53;;
18176;SDS011;9213;50.858;3.964;2023-07-24T05:24:07;6.43;;;3.90;;
18176;SDS011;9213;50.858;3.964;2023-07-24T05:26:35;4.63;;;3.70;;
18176;SDS011;9213;50.858;3.964;2023-07-24T05:29:02;5.77;;;3.47;;
18176;SDS011;9213;50.858;3.964;2023-07-24T05:31:29;7.17;;;3.53;;
18176;SDS011;9213;50.858;3.964;2023-07-24T05:33:56;4.60;;;3.80;;
18176;SDS011;9213;50.858;3.964;2023-07-24T05:36:23;4.23;;;3.80;;
18176;SDS011;9213;50.858;3.964;2023-07-24T05:38:51;4.47;;;3.70;;
18176;SDS011;9213;50.858;3.964;2023-07-24T05:41:18;4.43;;;3.50;;
18176;SDS011;9213;50.858;3.964;2023-07-24T05:43:46;5.90;;;3.50;;
18176;SDS011;9213;50.858;3.964;2023-07-24T05:46:13;4.10;;;3.70;;
18176;SDS011;9213;50.858;3.964;2023-07-24T05:48:40;5.97;;;3.90;;
18176;SDS011;9213;50.858;3.964;2023-07-24T05:51:07;4.77;;;3.70;;
18176;SDS011;9213;50.858;3.964;2023-07-24T05:53:34;6.00;;;3.93;;
18176;SDS011;9213;50.858;3.964;2023-07-24T05:56:01;6.80;;;4.07;;
18176;SDS011;9213;50.858;3.964;2023-07-24T05:58:29;7.30;;;4.10;;
18176;SDS011;9213;50.858;3.964;2023-07-24T06:00:57;7.85;;;4.18;;
18176;SDS011;9213;50.858;3.964;2023-07-24T06:03:24;8.30;;;4.57;;
18176;SDS011;9213;50.858;3.964;2023-07-24T06:05:51;6.50;;;3.85;;
18176;SDS011;9213;50.858;3.964;2023-07-24T06:08:19;10.10;;;4.50;;
18176;SDS011;9213;50.858;3.964;2023-07-24T06:10:46;10.10;;;4.50;;
18176;SDS011;9213;50.858;3.964;2023-07-24T06:13:14;5.30;;;4.27;;
18176;SDS011;9213;50.858;3.964;2023-07-24T06:15:41;4.67;;;3.97;;
18176;SDS011;9213;50.858;3.964;2023-07-24T06:18:09;8.70;;;4.20;;
18176;SDS011;9213;50.858;3.964;2023-07-24T06:20:36;7.05;;;4.18;;
18176;SDS011;9213;50.858;3.964;2023-07-24T06:23:03;5.87;;;3.97;;
18176;SDS011;9213;50.858;3.964;2023-07-24T06:25:30;5.07;;;3.87;;
18176;SDS011;9213;50.858;3.964;2023-07-24T06:27:57;5.90;;;4.30;;
18176;SDS011;9213;50.858;3.964;2023-07-24T06:30:24;4.47;;;3.60;;
18176;SDS011;9213;50.858;3.964;2023-07-24T06:32:52;5.07;;;4.30;;
18176;SDS011;9213;50.858;3.964;2023-07-24T06:35:20;5.32;;;4.18;;
18176;SDS011;9213;50.858;3.964;2023-07-24T06:37:47;5.63;;;4.50;;
18176;SDS011;9213;50.858;3.964;2023-07-24T06:40:14;6.97;;;4.53;;
18176;SDS011;9213;50.858;3.964;2023-07-24T06:42:41;5.60;;;4.50;;
18176;SDS011;9213;50.858;3.964;2023-07-24T06:45:08;5.03;;;4.20;;
18176;SDS011;9213;50.858;3.964;2023-07-24T06:47:35;4.37;;;3.97;;
18176;SDS011;9213;50.858;3.964;2023-07-24T06:50:03;6.10;;;4.53;;
18176;SDS011;9213;50.858;3.964;2023-07-24T06:52:32;5.70;;;4.25;;
18176;SDS011;9213;50.858;3.964;2023-07-24T06:54:59;4.13;;;3.70;;
18176;SDS011;9213;50.858;3.964;2023-07-24T06:57:26;5.82;;;3.80;;
18176;SDS011;9213;50.858;3.964;2023-07-24T06:59:53;3.58;;;3.33;;
18176;SDS011;9213;50.858;3.964;2023-07-24T07:02:20;3.88;;;3.45;;
18176;SDS011;9213;50.858;3.964;2023-07-24T07:04:47;3.78;;;3.45;;
18176;SDS011;9213;50.858;3.964;2023-07-24T07:07:14;4.18;;;3.78;;
18176;SDS011;9213;50.858;3.964;2023-07-24T07:09:42;3.22;;;3.03;;
18176;SDS011;9213;50.858;3.964;2023-07-24T07:12:09;4.38;;;3.20;;
18176;SDS011;9213;50.858;3.964;2023-07-24T07:14:36;3.65;;;3.35;;
18176;SDS011;9213;50.858;3.964;2023-07-24T07:17:03;7.50;;;3.80;;
18176;SDS011;9213;50.858;3.964;2023-07-24T07:19:30;4.10;;;3.75;;
18176;SDS011;9213;50.858;3.964;2023-07-24T07:21:57;4.28;;;3.72;;
18176;SDS011;9213;50.858;3.964;2023-07-24T07:24:24;3.80;;;3.50;;
18176;SDS011;9213;50.858;3.964;2023-07-24T07:26:52;4.10;;;3.38;;
18176;SDS011;9213;50.858;3.964;2023-07-24T07:29:19;3.55;;;3.10;;
18176;SDS011;9213;50.858;3.964;2023-07-24T07:31:46;3.65;;;3.30;;
18176;SDS011;9213;50.858;3.964;2023-07-24T07:34:12;5.50;;;3.40;;
18176;SDS011;9213;50.858;3.964;2023-07-24T07:36:39;3.80;;;3.42;;
18176;SDS011;9213;50.858;3.964;2023-07-24T07:39:06;4.28;;;3.60;;
18176;SDS011;9213;50.858;3.964;2023-07-24T07:41:34;4.32;;;3.63;;
18176;SDS011;9213;50.858;3.964;2023-07-24T07:44:03;4.10;;;3.72;;
18176;SDS011;9213;50.858;3.964;2023-07-24T07:46:31;5.50;;;3.85;;
18176;SDS011;9213;50.858;3.964;2023-07-24T07:48:57;3.80;;;3.50;;
18176;SDS011;9213;50.858;3.964;2023-07-24T07:51:24;4.03;;;3.42;;
18176;SDS011;9213;50.858;3.964;2023-07-24T07:53:52;3.92;;;3.47;;
18176;SDS011;9213;50.858;3.964;2023-07-24T07:56:19;5.07;;;3.75;;
18176;SDS011;9213;50.858;3.964;2023-07-24T07:58:46;3.85;;;3.55;;
18176;SDS011;9213;50.858;3.964;2023-07-24T08:01:15;5.00;;;4.13;;
18176;SDS011;9213;50.858;3.964;2023-07-24T08:03:42;5.18;;;3.80;;
18176;SDS011;9213;50.858;3.964;2023-07-24T08:06:09;4.60;;;3.63;;
18176;SDS011;9213;50.858;3.964;2023-07-24T08:08:37;3.50;;;3.08;;
18176;SDS011;9213;50.858;3.964;2023-07-24T08:11:04;4.15;;;3.25;;
18176;SDS011;9213;50.858;3.964;2023-07-24T08:13:32;3.80;;;3.50;;
18176;SDS011;9213;50.858;3.964;2023-07-24T08:15:59;3.78;;;3.47;;
18176;SDS011;9213;50.858;3.964;2023-07-24T08:18:29;5.55;;;3.50;;
18176;SDS011;9213;50.858;3.964;2023-07-24T08:20:56;5.32;;;3.55;;
18176;SDS011;9213;50.858;3.964;2023-07-24T08:23:23;3.60;;;3.30;;
18176;SDS011;9213;50.858;3.964;2023-07-24T08:25:51;5.00;;;3.38;;
18176;SDS011;9213;50.858;3.964;2023-07-24T08:28:18;3.78;;;3.47;;
18176;SDS011;9213;50.858;3.964;2023-07-24T08:30:45;3.80;;;3.40;;
18176;SDS011;9213;50.858;3.964;2023-07-24T08:33:13;3.28;;;2.97;;
18176;SDS011;9213;50.858;3.964;2023-07-24T08:35:41;3.50;;;3.20;;
18176;SDS011;9213;50.858;3.964;2023-07-24T08:38:08;4.35;;;3.90;;
18176;SDS011;9213;50.858;3.964;2023-07-24T08:40:35;3.60;;;3.20;;
18176;SDS011;9213;50.858;3.964;2023-07-24T08:43:02;3.80;;;3.05;;
18176;SDS011;9213;50.858;3.964;2023-07-24T08:45:30;3.53;;;3.20;;
18176;SDS011;9213;50.858;3.964;2023-07-24T08:47:57;4.90;;;3.30;;
18176;SDS011;9213;50.858;3.964;2023-07-24T08:50:25;4.30;;;3.22;;
18176;SDS011;9213;50.858;3.964;2023-07-24T08:52:54;3.58;;;3.28;;
18176;SDS011;9213;50.858;3.964;2023-07-24T08:55:23;2.90;;;2.70;;
18176;SDS011;9213;50.858;3.964;2023-07-24T08:57:51;4.25;;;3.22;;
18176;SDS011;9213;50.858;3.964;2023-07-24T09:00:18;3.03;;;2.72;;
18176;SDS011;9213;50.858;3.964;2023-07-24T09:02:45;3.10;;;2.80;;
18176;SDS011;9213;50.858;3.964;2023-07-24T09:05:12;5.68;;;3.15;;
18176;SDS011;9213;50.858;3.964;2023-07-24T09:07:40;4.55;;;3.13;;
18176;SDS011;9213;50.858;3.964;2023-07-24T09:10:09;3.30;;;3.00;;
18176;SDS011;9213;50.858;3.964;2023-07-24T09:12:37;3.92;;;3.00;;
18176;SDS011;9213;50.858;3.964;2023-07-24T09:15:04;5.13;;;2.72;;
18176;SDS011;9213;50.858;3.964;2023-07-24T09:17:32;3.42;;;2.60;;
18176;SDS011;9213;50.858;3.964;2023-07-24T09:19:59;3.30;;;2.83;;
18176;SDS011;9213;50.858;3.964;2023-07-24T09:22:27;4.55;;;3.00;;
18176;SDS011;9213;50.858;3.964;2023-07-24T09:24:54;4.45;;;2.88;;
18176;SDS011;9213;50.858;3.964;2023-07-24T09:27:25;3.65;;;2.80;;
18176;SDS011;9213;50.858;3.964;2023-07-24T09:29:54;3.03;;;2.70;;
18176;SDS011;9213;50.858;3.964;2023-07-24T09:32:22;6.70;;;2.70;;
18176;SDS011;9213;50.858;3.964;2023-07-24T09:34:49;2.90;;;2.40;;
18176;SDS011;9213;50.858;3.964;2023-07-24T09:37:23;3.83;;;2.80;;
18176;SDS011;9213;50.858;3.964;2023-07-24T09:39:51;3.20;;;2.90;;
18176;SDS011;9213;50.858;3.964;2023-07-24T09:42:18;3.80;;;2.92;;
18176;SDS011;9213;50.858;3.964;2023-07-24T09:44:54;4.78;;;2.70;;
18176;SDS011;9213;50.858;3.964;2023-07-24T09:47:21;3.47;;;2.58;;
18176;SDS011;9213;50.858;3.964;2023-07-24T09:49:48;3.42;;;2.67;;
18176;SDS011;9213;50.858;3.964;2023-07-24T09:52:16;4.15;;;2.92;;
18176;SDS011;9213;50.858;3.964;2023-07-24T09:54:46;3.65;;;3.15;;
18176;SDS011;9213;50.858;3.964;2023-07-24T09:57:21;5.43;;;3.50;;
18176;SDS011;9213;50.858;3.964;2023-07-24T09:59:49;4.18;;;3.72;;
18176;SDS011;9213;50.858;3.964;2023-07-24T10:02:18;4.35;;;3.78;;
18176;SDS011;9213;50.858;3.964;2023-07-24T10:04:46;4.72;;;3.60;;
18176;SDS011;9213;50.858;3.964;2023-07-24T10:07:13;5.32;;;4.22;;
18176;SDS011;9213;50.858;3.964;2023-07-24T10:09:42;5.53;;;3.90;;
18176;SDS011;9213;50.858;3.964;2023-07-24T10:12:09;4.50;;;4.10;;
18176;SDS011;9213;50.858;3.964;2023-07-24T10:14:36;4.45;;;3.53;;
18176;SDS011;9213;50.858;3.964;2023-07-24T10:17:04;4.60;;;4.20;;
18176;SDS011;9213;50.858;3.964;2023-07-24T10:19:40;4.32;;;3.92;;
18176;SDS011;9213;50.858;3.964;2023-07-24T10:22:08;5.20;;;3.95;;
18176;SDS011;9213;50.858;3.964;2023-07-24T10:24:35;6.28;;;4.10;;
18176;SDS011;9213;50.858;3.964;2023-07-24T10:27:03;6.60;;;4.00;;
18176;SDS011;9213;50.858;3.964;2023-07-24T10:29:34;4.60;;;4.07;;
18176;SDS011;9213;50.858;3.964;2023-07-24T10:32:02;4.70;;;3.85;;
18176;SDS011;9213;50.858;3.964;2023-07-24T10:34:36;4.75;;;4.10;;
18176;SDS011;9213;50.858;3.964;2023-07-24T10:37:06;3.90;;;3.60;;
18176;SDS011;9213;50.858;3.964;2023-07-24T10:39:38;3.65;;;3.25;;
18176;SDS011;9213;50.858;3.964;2023-07-24T10:42:06;3.10;;;2.90;;
18176;SDS011;9213;50.858;3.964;2023-07-24T10:44:34;3.83;;;3.50;;
18176;SDS011;9213;50.858;3.964;2023-07-24T10:47:01;3.38;;;2.92;;
18176;SDS011;9213;50.858;3.964;2023-07-24T10:49:29;2.67;;;2.47;;
18176;SDS011;9213;50.858;3.964;2023-07-24T10:51:56;5.72;;;2.78;;
18176;SDS011;9213;50.858;3.964;2023-07-24T10:54:24;4.38;;;2.83;;
18176;SDS011;9213;50.858;3.964;2023-07-24T10:56:57;3.17;;;2.67;;
18176;SDS011;9213;50.858;3.964;2023-07-24T10:59:35;3.17;;;2.88;;
18176;SDS011;9213;50.858;3.964;2023-07-24T11:02:02;5.10;;;2.90;;
18176;SDS011;9213;50.858;3.964;2023-07-24T11:04:30;3.88;;;2.90;;
18176;SDS011;9213;50.858;3.964;2023-07-24T11:06:59;4.35;;;2.60;;
18176;SDS011;9213;50.858;3.964;2023-07-24T11:09:35;3.22;;;2.65;;
18176;SDS011;9213;50.858;3.964;2023-07-24T11:12:12;3.20;;;2.90;;
18176;SDS011;9213;50.858;3.964;2023-07-24T11:14:46;4.07;;;2.88;;
18176;SDS011;9213;50.858;3.964;2023-07-24T11:17:14;3.85;;;3.20;;
18176;SDS011;9213;50.858;3.964;2023-07-24T11:19:41;3.45;;;2.90;;
18176;SDS011;9213;50.858;3.964;2023-07-24T11:22:08;4.93;;;3.25;;
18176;SDS011;9213;50.858;3.964;2023-07-24T11:24:43;4.28;;;3.20;;
18176;SDS011;9213;50.858;3.964;2023-07-24T11:27:12;4.68;;;2.90;;
18176;SDS011;9213;50.858;3.964;2023-07-24T11:29:40;5.22;;;2.88;;
18176;SDS011;9213;50.858;3.964;2023-07-24T11:32:07;3.25;;;2.80;;
18176;SDS011;9213;50.858;3.964;2023-07-24T11:34:34;4.18;;;3.05;;
18176;SDS011;9213;50.858;3.964;2023-07-24T11:37:02;3.25;;;2.80;;
18176;SDS011;9213;50.858;3.964;2023-07-24T11:39:29;3.33;;;2.92;;
18176;SDS011;9213;50.858;3.964;2023-07-24T11:41:57;3.90;;;3.03;;
18176;SDS011;9213;50.858;3.964;2023-07-24T11:44:27;3.53;;;3.22;;
18176;SDS011;9213;50.858;3.964;2023-07-24T11:47:00;3.75;;;3.10;;
18176;SDS011;9213;50.858;3.964;2023-07-24T11:49:28;3.00;;;2.75;;
18176;SDS011;9213;50.858;3.964;2023-07-24T11:51:59;3.40;;;2.70;;
18176;SDS011;9213;50.858;3.964;2023-07-24T11:54:27;4.38;;;2.90;;
18176;SDS011;9213;50.858;3.964;2023-07-24T11:56:54;4.78;;;3.20;;
18176;SDS011;9213;50.858;3.964;2023-07-24T11:59:22;3.22;;;2.80;;
18176;SDS011;9213;50.858;3.964;2023-07-24T12:01:50;3.08;;;2.65;;
18176;SDS011;9213;50.858;3.964;2023-07-24T12:04:18;3.40;;;2.50;;
18176;SDS011;9213;50.858;3.964;2023-07-24T12:06:45;2.83;;;2.55;;
18176;SDS011;9213;50.858;3.964;2023-07-24T12:09:12;3.40;;;2.88;;
18176;SDS011;9213;50.858;3.964;2023-07-24T12:11:40;3.47;;;3.17;;
18176;SDS011;9213;50.858;3.964;2023-07-24T12:14:07;4.10;;;3.30;;
18176;SDS011;9213;50.858;3.964;2023-07-24T12:16:35;7.40;;;3.75;;
18176;SDS011;9213;50.858;3.964;2023-07-24T12:19:02;3.22;;;2.90;;
18176;SDS011;9213;50.858;3.964;2023-07-24T12:21:29;3.97;;;3.13;;
18176;SDS011;9213;50.858;3.964;2023-07-24T12:23:56;4.07;;;2.92;;
18176;SDS011;9213;50.858;3.964;2023-07-24T12:26:23;4.85;;;3.65;;
18176;SDS011;9213;50.858;3.964;2023-07-24T12:28:50;7.55;;;3.03;;
18176;SDS011;9213;50.858;3.964;2023-07-24T12:31:17;3.13;;;2.83;;
18176;SDS011;9213;50.858;3.964;2023-07-24T12:33:45;3.65;;;2.95;;
18176;SDS011;9213;50.858;3.964;2023-07-24T12:36:12;3.85;;;3.30;;
18176;SDS011;9213;50.858;3.964;2023-07-24T12:38:39;3.85;;;3.40;;
18176;SDS011;9213;50.858;3.964;2023-07-24T12:41:06;4.28;;;3.17;;
18176;SDS011;9213;50.858;3.964;2023-07-24T12:43:33;5.63;;;3.50;;
18176;SDS011;9213;50.858;3.964;2023-07-24T12:45:59;4.55;;;3.30;;
18176;SDS011;9213;50.858;3.964;2023-07-24T12:48:26;4.20;;;3.40;;
18176;SDS011;9213;50.858;3.964;2023-07-24T12:50:55;3.63;;;3.33;;
18176;SDS011;9213;50.858;3.964;2023-07-24T12:53:22;4.70;;;3.50;;
18176;SDS011;9213;50.858;3.964;2023-07-24T12:55:49;4.25;;;3.17;;
18176;SDS011;9213;50.858;3.964;2023-07-24T12:58:16;4.18;;;3.65;;
18176;SDS011;9213;50.858;3.964;2023-07-24T13:00:43;4.22;;;3.22;;
18176;SDS011;9213;50.858;3.964;2023-07-24T13:03:10;3.33;;;3.13;;
18176;SDS011;9213;50.858;3.964;2023-07-24T13:05:37;4.05;;;3.30;;
18176;SDS011;9213;50.858;3.964;2023-07-24T13:08:05;5.07;;;3.50;;
18176;SDS011;9213;50.858;3.964;2023-07-24T13:10:32;4.18;;;3.60;;
18176;SDS011;9213;50.858;3.964;2023-07-24T13:12:59;3.75;;;3.38;;
18176;SDS011;9213;50.858;3.964;2023-07-24T13:15:26;3.92;;;3.03;;
18176;SDS011;9213;50.858;3.964;2023-07-24T13:17:54;4.78;;;2.95;;
18176;SDS011;9213;50.858;3.964;2023-07-24T13:20:21;4.70;;;3.03;;
18176;SDS011;9213;50.858;3.964;2023-07-24T13:22:48;4.78;;;3.15;;
18176;SDS011;9213;50.858;3.964;2023-07-24T13:25:16;5.10;;;2.97;;
18176;SDS011;9213;50.858;3.964;2023-07-24T13:27:43;4.93;;;3.00;;
18176;SDS011;9213;50.858;3.964;2023-07-24T13:30:11;4.13;;;3.60;;
18176;SDS011;9213;50.858;3.964;2023-07-24T13:32:38;4.55;;;3.40;;
18176;SDS011;9213;50.858;3.964;2023-07-24T13:35:05;5.25;;;3.60;;
18176;SDS011;9213;50.858;3.964;2023-07-24T13:37:32;7.05;;;3.30;;
18176;SDS011;9213;50.858;3.964;2023-07-24T13:39:59;4.15;;;2.80;;
18176;SDS011;9213;50.858;3.964;2023-07-24T13:42:27;4.20;;;3.03;;
18176;SDS011;9213;50.858;3.964;2023-07-24T13:44:54;3.20;;;2.90;;
18176;SDS011;9213;50.858;3.964;2023-07-24T13:47:21;4.07;;;2.78;;
18176;SDS011;9213;50.858;3.964;2023-07-24T13:49:48;3.78;;;3.13;;
18176;SDS011;9213;50.858;3.964;2023-07-24T13:52:15;4.18;;;3.17;;
18176;SDS011;9213;50.858;3.964;2023-07-24T13:54:42;3.58;;;3.08;;
18176;SDS011;9213;50.858;3.964;2023-07-24T13:57:09;4.15;;;2.83;;
18176;SDS011;9213;50.858;3.964;2023-07-24T13:59:37;3.38;;;3.03;;
18176;SDS011;9213;50.858;3.964;2023-07-24T14:02:04;5.03;;;2.65;;
18176;SDS011;9213;50.858;3.964;2023-07-24T14:04:32;3.35;;;2.83;;
18176;SDS011;9213;50.858;3.964;2023-07-24T14:06:58;2.88;;;2.60;;
18176;SDS011;9213;50.858;3.964;2023-07-24T14:09:25;4.10;;;2.88;;
18176;SDS011;9213;50.858;3.964;2023-07-24T14:11:53;3.38;;;2.75;;
18176;SDS011;9213;50.858;3.964;2023-07-24T14:14:20;3.55;;;2.65;;
18176;SDS011;9213;50.858;3.964;2023-07-24T14:16:49;4.38;;;2.65;;
18176;SDS011;9213;50.858;3.964;2023-07-24T14:19:16;2.47;;;2.28;;
18176;SDS011;9213;50.858;3.964;2023-07-24T14:21:44;2.65;;;2.45;;
18176;SDS011;9213;50.858;3.964;2023-07-24T14:24:11;3.42;;;2.28;;
18176;SDS011;9213;50.858;3.964;2023-07-24T14:26:38;3.65;;;2.97;;
18176;SDS011;9213;50.858;3.964;2023-07-24T14:29:05;3.50;;;2.88;;
18176;SDS011;9213;50.858;3.964;2023-07-24T14:31:32;4.53;;;3.30;;
18176;SDS011;9213;50.858;3.964;2023-07-24T14:34:00;4.88;;;3.58;;
18176;SDS011;9213;50.858;3.964;2023-07-24T14:36:27;6.35;;;3.72;;
18176;SDS011;9213;50.858;3.964;2023-07-24T14:38:58;7.60;;;4.15;;
18176;SDS011;9213;50.858;3.964;2023-07-24T14:41:25;3.58;;;2.65;;
18176;SDS011;9213;50.858;3.964;2023-07-24T14:43:52;6.18;;;3.00;;
18176;SDS011;9213;50.858;3.964;2023-07-24T14:46:19;3.33;;;3.03;;
18176;SDS011;9213;50.858;3.964;2023-07-24T14:48:46;3.33;;;2.60;;
18176;SDS011;9213;50.858;3.964;2023-07-24T14:51:14;3.50;;;2.88;;
18176;SDS011;9213;50.858;3.964;2023-07-24T14:53:41;3.67;;;2.80;;
18176;SDS011;9213;50.858;3.964;2023-07-24T14:56:08;5.50;;;3.13;;
18176;SDS011;9213;50.858;3.964;2023-07-24T14:58:35;5.30;;;3.15;;
18176;SDS011;9213;50.858;3.964;2023-07-24T15:01:02;4.93;;;2.92;;
18176;SDS011;9213;50.858;3.964;2023-07-24T15:03:29;5.40;;;3.78;;